createdAt,value
2023-05-19T00:02:11.530Z,102499.75
2023-05-19T00:04:40.610Z,102488.84
2023-05-19T00:07:10.609Z,102483.94
2023-05-19T00:09:39.183Z,102491.31
2023-05-19T00:12:08.013Z,102486.84
2023-05-19T00:14:36.654Z,102482.47
2023-05-19T00:17:05.193Z,102485.50
2023-05-19T00:19:33.898Z,102481.50
2023-05-19T00:22:02.262Z,102478.38
2023-05-19T00:24:30.820Z,102479.75
2023-05-19T00:26:59.238Z,102485.41
2023-05-19T00:29:27.729Z,102477.75
2023-05-19T00:31:56.575Z,102472.56
2023-05-19T00:34:25.014Z,102476.53
2023-05-19T00:36:53.439Z,102464.47
2023-05-19T00:39:21.851Z,102468.66
2023-05-19T00:41:50.346Z,102461.44
2023-05-19T00:44:18.750Z,102459.59
2023-05-19T00:46:47.137Z,102457.97
2023-05-19T00:49:16.619Z,102453.00
2023-05-19T00:51:46.127Z,102454.94
2023-05-19T00:54:14.748Z,102456.56
2023-05-19T00:56:43.126Z,102457.66
2023-05-19T00:59:11.553Z,102449.75
2023-05-19T01:01:40.039Z,102448.19
2023-05-19T01:04:10.477Z,102453.94
2023-05-19T01:06:39.128Z,102460.75
2023-05-19T01:09:07.579Z,102457.47
2023-05-19T01:11:35.929Z,102452.25
2023-05-19T01:14:04.464Z,102456.16
2023-05-19T01:16:54.748Z,102455.66
2023-05-19T01:19:41.993Z,102446.41
2023-05-19T01:22:31.025Z,102451.94
2023-05-19T01:25:10.390Z,102457.19
2023-05-19T01:27:46.862Z,102449.28
2023-05-19T01:30:27.844Z,102446.75
2023-05-19T01:32:59.474Z,102455.56
2023-05-19T01:35:28.694Z,102449.78
2023-05-19T01:37:58.004Z,102452.88
2023-05-19T01:40:28.154Z,102449.25
2023-05-19T01:42:58.074Z,102454.31
2023-05-19T01:45:28.496Z,102452.31
2023-05-19T01:47:58.863Z,102452.41
2023-05-19T01:50:27.477Z,102446.22
2023-05-19T01:52:56.180Z,102446.91
2023-05-19T01:55:24.739Z,102443.78
2023-05-19T01:58:11.813Z,102445.25
2023-05-19T02:00:43.284Z,102445.22
2023-05-19T02:03:30.792Z,102441.44
2023-05-19T02:05:59.202Z,102431.06
2023-05-19T02:08:30.746Z,102430.72
2023-05-19T02:11:18.670Z,102429.91
2023-05-19T02:13:49.387Z,102424.16
2023-05-19T02:16:18.396Z,102427.41
2023-05-19T02:18:48.060Z,102428.44
2023-05-19T02:21:16.604Z,102426.66
2023-05-19T02:23:45.048Z,102428.53
2023-05-19T02:26:13.370Z,102432.22
2023-05-19T02:28:41.750Z,102425.38
2023-05-19T02:31:10.109Z,102423.66
2023-05-19T02:33:38.456Z,102430.59
2023-05-19T02:36:07.007Z,102424.19
2023-05-19T02:38:36.222Z,102417.63
2023-05-19T02:41:04.689Z,102416.94
2023-05-19T02:43:33.066Z,102428.41
2023-05-19T02:46:01.515Z,102425.03
2023-05-19T02:48:29.901Z,102419.63
2023-05-19T02:50:58.227Z,102416.84
2023-05-19T02:53:26.773Z,102418.78
2023-05-19T02:55:55.153Z,102418.00
2023-05-19T02:58:23.514Z,102411.31
2023-05-19T03:00:52.252Z,102415.94
2023-05-19T03:03:20.613Z,102413.16
2023-05-19T03:05:49.086Z,102414.34
2023-05-19T03:08:17.449Z,102411.16
2023-05-19T03:10:46.665Z,102415.66
2023-05-19T03:13:17.037Z,102407.09
2023-05-19T03:15:45.438Z,102407.88
2023-05-19T03:18:13.908Z,102414.44
2023-05-19T03:20:44.708Z,102413.56
2023-05-19T03:23:13.134Z,102409.56
2023-05-19T03:25:41.578Z,102415.19
2023-05-19T03:28:10.114Z,102408.19
2023-05-19T03:30:38.497Z,102417.16
2023-05-19T03:33:06.941Z,102417.31
2023-05-19T03:35:35.594Z,102418.13
2023-05-19T03:38:04.008Z,102416.34
2023-05-19T03:40:32.552Z,102419.13
2023-05-19T03:43:01.127Z,102421.34
2023-05-19T03:45:29.552Z,102424.69
2023-05-19T03:47:58.025Z,102424.81
2023-05-19T03:50:29.252Z,102426.84
2023-05-19T03:52:57.682Z,102428.09
2023-05-19T03:55:26.743Z,102438.78
2023-05-19T03:57:56.734Z,102430.28
2023-05-19T04:00:25.126Z,102436.59
2023-05-19T04:02:53.793Z,102429.72
2023-05-19T04:05:22.219Z,102432.97
2023-05-19T04:07:51.039Z,102425.84
2023-05-19T04:10:19.783Z,102423.72
2023-05-19T04:12:48.127Z,102429.91
2023-05-19T04:15:16.728Z,102419.75
2023-05-19T04:17:45.273Z,102418.78
2023-05-19T04:20:13.914Z,102426.47
2023-05-19T04:22:42.387Z,102425.97
2023-05-19T04:25:10.863Z,102422.47
2023-05-19T04:27:39.542Z,102424.03
2023-05-19T04:30:09.434Z,102420.06
2023-05-19T04:32:39.597Z,102421.84
2023-05-19T04:35:08.294Z,102425.13
2023-05-19T04:37:38.388Z,102428.28
2023-05-19T04:40:09.451Z,102425.53
2023-05-19T04:42:41.243Z,102422.75
2023-05-19T04:45:09.942Z,102430.53
2023-05-19T04:47:38.366Z,102423.81
2023-05-19T04:50:07.323Z,102425.81
2023-05-19T04:52:36.234Z,102427.19
2023-05-19T04:55:04.817Z,102438.38
2023-05-19T04:57:33.177Z,102425.47
2023-05-19T05:00:01.659Z,102425.34
2023-05-19T05:02:30.176Z,102424.03
2023-05-19T05:04:58.517Z,102424.28
2023-05-19T05:07:27.027Z,102416.28
2023-05-19T05:09:55.722Z,102417.84
2023-05-19T05:12:24.332Z,102422.84
2023-05-19T05:14:52.877Z,102423.22
2023-05-19T05:17:21.584Z,102426.38
2023-05-19T05:19:50.337Z,102426.16
2023-05-19T05:22:18.887Z,102429.38
2023-05-19T05:24:47.533Z,102431.16
2023-05-19T05:27:16.075Z,102427.81
2023-05-19T05:29:44.521Z,102439.94
2023-05-19T05:32:13.048Z,102439.56
2023-05-19T05:34:41.930Z,102437.44
2023-05-19T05:37:10.710Z,102437.53
2023-05-19T05:39:39.842Z,102434.91
2023-05-19T05:42:11.219Z,102443.31
2023-05-19T05:44:39.639Z,102442.28
2023-05-19T05:47:08.473Z,102443.38
2023-05-19T05:49:38.084Z,102438.25
2023-05-19T05:52:08.465Z,102434.38
2023-05-19T05:54:37.894Z,102428.59
2023-05-19T05:57:06.533Z,102425.34
2023-05-19T05:59:35.185Z,102436.47
2023-05-19T06:02:03.972Z,102437.59
2023-05-19T06:04:32.350Z,102432.13
2023-05-19T06:07:01.726Z,102437.31
2023-05-19T06:09:30.458Z,102445.75
2023-05-19T06:12:01.868Z,102448.09
2023-05-19T06:14:30.337Z,102452.25
2023-05-19T06:16:58.729Z,102453.72
2023-05-19T06:19:27.165Z,102445.72
2023-05-19T06:21:55.780Z,102459.66
2023-05-19T06:24:24.221Z,102457.53
2023-05-19T06:26:52.598Z,102456.94
2023-05-19T06:29:21.288Z,102449.53
2023-05-19T06:31:50.057Z,102457.06
2023-05-19T06:34:18.689Z,102459.44
2023-05-19T06:36:47.207Z,102460.91
2023-05-19T06:39:15.644Z,102463.13
2023-05-19T06:41:44.184Z,102454.00
2023-05-19T06:44:12.548Z,102458.16
2023-05-19T06:46:41.037Z,102458.16
2023-05-19T06:49:09.692Z,102457.19
2023-05-19T06:51:38.173Z,102450.38
2023-05-19T06:54:06.741Z,102448.50
2023-05-19T06:56:35.192Z,102454.81
2023-05-19T06:59:04.108Z,102453.16
2023-05-19T07:01:32.498Z,102457.38
2023-05-19T07:04:01.092Z,102448.91
2023-05-19T07:06:29.800Z,102451.38
2023-05-19T07:08:58.149Z,102449.81
2023-05-19T07:11:27.020Z,102446.09
2023-05-19T07:13:55.528Z,102455.56
2023-05-19T07:16:24.817Z,102455.97
2023-05-19T07:18:53.283Z,102451.53
2023-05-19T07:21:21.715Z,102449.56
2023-05-19T07:23:50.076Z,102456.81
2023-05-19T07:26:18.487Z,102459.38
2023-05-19T07:28:46.866Z,102458.31
2023-05-19T07:31:15.539Z,102451.22
2023-05-19T07:33:44.025Z,102446.06
2023-05-19T07:36:12.501Z,102450.94
2023-05-19T07:38:40.929Z,102452.47
2023-05-19T07:41:09.490Z,102450.50
2023-05-19T07:43:37.970Z,102447.59
2023-05-19T07:46:06.515Z,102451.53
2023-05-19T07:48:34.932Z,102453.31
2023-05-19T07:51:03.575Z,102449.06
2023-05-19T07:53:32.110Z,102451.63
2023-05-19T07:56:00.534Z,102445.13
2023-05-19T07:58:29.044Z,102449.97
2023-05-19T08:00:58.786Z,102443.94
2023-05-19T08:03:27.865Z,102449.31
2023-05-19T08:05:56.569Z,102443.19
2023-05-19T08:08:25.113Z,102444.16
2023-05-19T08:10:54.477Z,102446.56
2023-05-19T08:13:22.917Z,102439.63
2023-05-19T08:15:51.373Z,102441.06
2023-05-19T08:18:20.274Z,102437.84
2023-05-19T08:20:48.713Z,102425.41
2023-05-19T08:23:17.593Z,102433.03
2023-05-19T08:25:46.010Z,102432.19
2023-05-19T08:28:14.390Z,102427.84
2023-05-19T08:30:42.757Z,102411.53
2023-05-19T08:33:11.647Z,102422.22
2023-05-19T08:35:40.141Z,102421.13
2023-05-19T08:38:08.523Z,102414.34
2023-05-19T08:40:37.656Z,102421.06
2023-05-19T08:43:06.177Z,102415.47
2023-05-19T08:45:35.671Z,102405.81
2023-05-19T08:48:04.315Z,102401.41
2023-05-19T08:50:36.358Z,102401.22
2023-05-19T08:53:18.163Z,102394.19
2023-05-19T08:55:59.012Z,102396.19
2023-05-19T08:58:28.787Z,102399.84
2023-05-19T09:00:57.873Z,102395.09
2023-05-19T09:03:26.966Z,102391.66
2023-05-19T09:05:55.390Z,102388.59
2023-05-19T09:08:23.763Z,102387.03
2023-05-19T09:10:52.167Z,102391.22
2023-05-19T09:13:21.645Z,102394.34
2023-05-19T09:15:50.722Z,102390.59
2023-05-19T09:18:19.129Z,102402.84
2023-05-19T09:20:47.753Z,102395.03
2023-05-19T09:23:17.442Z,102392.69
2023-05-19T09:25:49.140Z,102378.97
2023-05-19T09:28:31.666Z,102383.84
2023-05-19T09:31:00.427Z,102386.53
2023-05-19T09:33:29.486Z,102383.22
2023-05-19T09:35:58.134Z,102382.16
2023-05-19T09:38:27.084Z,102379.38
2023-05-19T09:40:59.897Z,102367.44
2023-05-19T09:43:33.499Z,102372.47
2023-05-19T09:46:06.746Z,102368.00
2023-05-19T09:48:36.487Z,102374.34
2023-05-19T09:51:08.064Z,102380.88
2023-05-19T09:53:36.791Z,102376.78
2023-05-19T09:56:05.392Z,102379.84
2023-05-19T09:58:37.101Z,102372.44
2023-05-19T10:01:07.626Z,102385.00
2023-05-19T10:03:36.851Z,102381.78
2023-05-19T10:06:07.034Z,102388.13
2023-05-19T10:08:36.877Z,102379.41
2023-05-19T10:11:05.345Z,102384.91
2023-05-19T10:13:34.760Z,102374.81
2023-05-19T10:16:03.467Z,102389.63
2023-05-19T10:18:33.486Z,102376.63
2023-05-19T10:21:02.434Z,102385.19
2023-05-19T10:23:30.853Z,102377.69
2023-05-19T10:26:01.311Z,102372.88
2023-05-19T10:28:35.016Z,102373.56
2023-05-19T10:31:06.699Z,102369.06
2023-05-19T10:33:55.813Z,102374.06
2023-05-19T10:36:29.236Z,102368.13
2023-05-19T10:39:06.246Z,102358.50
2023-05-19T10:41:50.964Z,102353.94
2023-05-19T10:44:23.564Z,102340.47
2023-05-19T10:46:54.095Z,102351.75
2023-05-19T10:49:23.607Z,102352.53
2023-05-19T10:51:52.330Z,102352.38
2023-05-19T10:54:39.141Z,102351.31
2023-05-19T10:57:08.450Z,102357.28
2023-05-19T10:59:39.216Z,102360.66
2023-05-19T11:02:08.729Z,102363.25
2023-05-19T11:04:50.129Z,102352.59
2023-05-19T11:07:21.662Z,102332.13
2023-05-19T11:09:53.380Z,102354.03
2023-05-19T11:12:25.545Z,102360.84
2023-05-19T11:14:57.888Z,102354.84
2023-05-19T11:17:27.467Z,102351.16
2023-05-19T11:19:56.822Z,102352.28
2023-05-19T11:22:26.429Z,102358.94
2023-05-19T11:24:55.307Z,102348.56
2023-05-19T11:27:33.749Z,102345.66
2023-05-19T11:30:11.525Z,102346.03
2023-05-19T11:32:42.137Z,102343.84
2023-05-19T11:35:10.986Z,102346.63
2023-05-19T11:37:41.484Z,102339.59
2023-05-19T11:40:11.027Z,102350.44
2023-05-19T11:42:39.480Z,102335.38
2023-05-19T11:45:08.294Z,102333.75
2023-05-19T11:47:50.976Z,102331.06
2023-05-19T11:50:25.630Z,102329.44
2023-05-19T11:52:54.742Z,102318.31
2023-05-19T11:55:23.180Z,102320.50
2023-05-19T12:00:31.612Z,102315.59
2023-05-19T12:03:00.297Z,102313.06
2023-05-19T12:05:29.482Z,102316.38
2023-05-19T12:07:58.176Z,102310.84
2023-05-19T12:10:27.310Z,102308.69
2023-05-19T12:12:55.804Z,102321.53
2023-05-19T12:15:25.394Z,102300.72
2023-05-19T12:17:53.717Z,102303.56
2023-05-19T12:20:22.900Z,102295.25
2023-05-19T12:22:51.481Z,102294.81
2023-05-19T12:25:20.371Z,102286.41
2023-05-19T12:27:49.662Z,102297.97
2023-05-19T12:30:18.461Z,102295.34
2023-05-19T12:32:49.055Z,102281.44
2023-05-19T12:35:17.561Z,102287.13
2023-05-19T12:37:46.861Z,102288.19
2023-05-19T12:40:16.585Z,102280.06
2023-05-19T12:42:45.135Z,102288.41
2023-05-19T12:45:13.494Z,102285.25
2023-05-19T12:47:41.931Z,102278.63
2023-05-19T12:50:10.701Z,102280.94
2023-05-19T12:52:43.484Z,102282.88
2023-05-19T12:55:12.141Z,102271.31
2023-05-19T12:57:41.840Z,102273.41
2023-05-19T13:00:25.626Z,102267.28
2023-05-19T13:03:01.702Z,102259.84
2023-05-19T13:05:34.436Z,102267.44
2023-05-19T13:08:10.363Z,102256.72
2023-05-19T13:10:39.888Z,102255.19
2023-05-19T13:13:08.857Z,102262.88
2023-05-19T13:15:38.221Z,102263.50
2023-05-19T13:18:08.718Z,102258.63
2023-05-19T13:20:38.013Z,102250.63
2023-05-19T13:23:06.683Z,102240.16
2023-05-19T13:25:35.100Z,102255.41
2023-05-19T13:28:05.617Z,102245.09
2023-05-19T13:30:39.063Z,102242.69
2023-05-19T13:33:07.840Z,102245.22
2023-05-19T13:35:39.425Z,102245.03
2023-05-19T13:38:10.055Z,102250.75
2023-05-19T13:40:39.584Z,102245.31
2023-05-19T13:43:08.733Z,102231.91
2023-05-19T13:45:37.364Z,102245.13
2023-05-19T13:48:07.352Z,102247.66
2023-05-19T13:50:36.113Z,102244.44
2023-05-19T13:53:04.638Z,102243.31
2023-05-19T13:55:33.157Z,102234.13
2023-05-19T13:58:01.553Z,102235.50
2023-05-19T14:00:31.813Z,102241.00
2023-05-19T14:03:01.802Z,102238.41
2023-05-19T14:05:31.120Z,102234.41
2023-05-19T14:08:01.168Z,102229.03
2023-05-19T14:10:29.682Z,102227.47
2023-05-19T14:15:34.553Z,102221.25
2023-05-19T14:18:04.752Z,102218.28
2023-05-19T14:20:34.200Z,102219.34
2023-05-19T14:23:03.024Z,102213.81
2023-05-19T14:25:31.526Z,102228.38
2023-05-19T14:28:00.194Z,102225.72
2023-05-19T14:30:28.982Z,102220.03
2023-05-19T14:32:57.581Z,102224.91
2023-05-19T14:35:26.304Z,102227.63
2023-05-19T14:37:54.764Z,102218.16
2023-05-19T14:40:23.253Z,102228.91
2023-05-19T14:42:51.649Z,102210.44
2023-05-19T14:45:20.880Z,102220.78
2023-05-19T14:47:49.536Z,102221.50
2023-05-19T14:50:18.013Z,102212.25
2023-05-19T14:52:46.309Z,102206.13
2023-05-19T14:55:14.684Z,102204.16
2023-05-19T14:57:43.130Z,102206.53
2023-05-19T15:00:12.084Z,102206.38
2023-05-19T15:02:40.494Z,102201.03
2023-05-19T15:05:09.222Z,102194.94
2023-05-19T15:07:38.354Z,102207.63
2023-05-19T15:10:07.313Z,102198.63
2023-05-19T15:12:35.759Z,102205.03
2023-05-19T15:15:05.056Z,102204.22
2023-05-19T15:17:33.824Z,102195.63
2023-05-19T15:20:02.438Z,102178.03
2023-05-19T15:22:30.955Z,102193.13
2023-05-19T15:24:59.312Z,102184.91
2023-05-19T15:27:27.904Z,102195.28
2023-05-19T15:29:56.250Z,102193.84
2023-05-19T15:32:24.681Z,102188.84
2023-05-19T15:34:53.105Z,102191.28
2023-05-19T15:37:21.580Z,102191.47
2023-05-19T15:39:50.083Z,102184.66
2023-05-19T15:42:18.440Z,102193.66
2023-05-19T15:44:47.009Z,102198.19
2023-05-19T15:47:15.467Z,102185.94
2023-05-19T15:49:43.849Z,102184.25
2023-05-19T15:52:12.166Z,102183.78
2023-05-19T15:54:40.871Z,102187.78
2023-05-19T15:57:09.375Z,102176.34
2023-05-19T15:59:37.730Z,102180.69
2023-05-19T16:02:06.272Z,102179.97
2023-05-19T16:04:34.973Z,102180.50
2023-05-19T16:07:03.354Z,102177.66
2023-05-19T16:09:31.826Z,102169.78
2023-05-19T16:12:00.385Z,102161.31
2023-05-19T16:14:32.003Z,102171.78
2023-05-19T16:17:00.816Z,102175.81
2023-05-19T16:19:29.171Z,102171.22
2023-05-19T16:21:57.557Z,102167.41
2023-05-19T16:24:26.004Z,102171.75
2023-05-19T16:26:54.535Z,102160.34
2023-05-19T16:29:22.850Z,102162.19
2023-05-19T16:31:51.349Z,102163.06
2023-05-19T16:34:19.794Z,102156.97
2023-05-19T16:36:48.232Z,102146.25
2023-05-19T16:39:16.759Z,102147.88
2023-05-19T16:41:45.123Z,102140.84
2023-05-19T16:44:14.660Z,102139.25
2023-05-19T16:46:43.117Z,102145.31
2023-05-19T16:49:11.822Z,102145.97
2023-05-19T16:51:40.142Z,102140.88
2023-05-19T16:54:08.440Z,102144.69
2023-05-19T16:56:36.809Z,102142.38
2023-05-19T16:59:05.239Z,102143.09
2023-05-19T17:01:33.674Z,102142.97
2023-05-19T17:04:02.130Z,102146.88
2023-05-19T17:06:31.167Z,102150.25
2023-05-19T17:08:59.531Z,102141.13
2023-05-19T17:11:27.973Z,102146.28
2023-05-19T17:13:56.436Z,102148.44
2023-05-19T17:16:24.871Z,102162.25
2023-05-19T17:18:53.276Z,102143.25
2023-05-19T17:21:21.715Z,102149.66
2023-05-19T17:23:50.182Z,102141.75
2023-05-19T17:26:18.630Z,102147.75
2023-05-19T17:28:47.109Z,102135.25
2023-05-19T17:31:15.869Z,102139.94
2023-05-19T17:33:44.406Z,102143.63
2023-05-19T17:36:12.811Z,102136.25
2023-05-19T17:38:41.949Z,102138.38
2023-05-19T17:41:10.359Z,102132.41
2023-05-19T17:43:40.563Z,102133.91
2023-05-19T17:46:09.327Z,102139.13
2023-05-19T17:48:37.695Z,102141.00
2023-05-19T17:51:09.168Z,102144.34
2023-05-19T17:53:37.727Z,102137.25
2023-05-19T17:56:08.750Z,102144.84
2023-05-19T17:58:37.301Z,102143.47
2023-05-19T18:01:06.019Z,102143.66
2023-05-19T18:03:34.658Z,102143.22
2023-05-19T18:06:03.186Z,102138.88
2023-05-19T18:08:32.305Z,102139.59
2023-05-19T18:11:00.812Z,102140.94
2023-05-19T18:13:29.205Z,102143.91
2023-05-19T18:15:59.633Z,102151.22
2023-05-19T18:18:28.036Z,102140.81
2023-05-19T18:20:56.645Z,102139.78
2023-05-19T18:23:25.097Z,102137.56
2023-05-19T18:25:53.595Z,102138.34
2023-05-19T18:28:22.816Z,102149.56
2023-05-19T18:31:01.127Z,102143.38
2023-05-19T18:33:31.030Z,102148.31
2023-05-19T18:35:59.850Z,102148.31
2023-05-19T18:38:28.280Z,102144.19
2023-05-19T18:40:56.850Z,102154.09
2023-05-19T18:43:25.243Z,102147.22
2023-05-19T18:45:53.750Z,102155.19
2023-05-19T18:48:22.538Z,102155.84
2023-05-19T18:50:51.291Z,102162.03
2023-05-19T18:53:20.830Z,102155.44
2023-05-19T18:55:49.281Z,102167.03
2023-05-19T18:58:18.401Z,102165.31
2023-05-19T19:00:47.023Z,102158.75
2023-05-19T19:03:15.945Z,102162.00
2023-05-19T19:05:46.060Z,102170.63
2023-05-19T19:08:14.435Z,102176.03
2023-05-19T19:10:42.832Z,102168.19
2023-05-19T19:13:11.221Z,102170.41
2023-05-19T19:15:39.753Z,102180.94
2023-05-19T19:18:08.483Z,102186.75
2023-05-19T19:20:37.038Z,102189.44
2023-05-19T19:23:06.693Z,102172.78
2023-05-19T19:25:35.283Z,102183.59
2023-05-19T19:28:03.846Z,102183.72
2023-05-19T19:30:32.549Z,102192.34
2023-05-19T19:33:01.110Z,102193.69
2023-05-19T19:35:29.660Z,102203.09
2023-05-19T19:37:58.623Z,102202.28
2023-05-19T19:40:27.016Z,102207.38
2023-05-19T19:42:55.421Z,102214.91
2023-05-19T19:45:24.066Z,102211.13
2023-05-19T19:47:52.470Z,102209.31
2023-05-19T19:50:20.890Z,102218.94
2023-05-19T19:52:56.518Z,102211.22
2023-05-19T19:55:24.929Z,102216.28
2023-05-19T19:57:53.243Z,102216.50
2023-05-19T20:00:21.670Z,102221.78
2023-05-19T20:03:02.894Z,102224.59
2023-05-19T20:05:32.758Z,102232.91
2023-05-19T20:08:01.369Z,102228.28
2023-05-19T20:10:29.812Z,102226.44
2023-05-19T20:12:59.322Z,102224.72
2023-05-19T20:15:27.827Z,102229.56
2023-05-19T20:17:56.310Z,102232.44
2023-05-19T20:20:24.729Z,102234.22
2023-05-19T20:22:53.150Z,102227.56
2023-05-19T20:25:21.618Z,102241.16
2023-05-19T20:27:50.014Z,102233.03
2023-05-19T20:30:18.567Z,102232.16
2023-05-19T20:32:47.217Z,102236.75
2023-05-19T20:35:15.914Z,102236.28
2023-05-19T20:37:44.381Z,102239.47
2023-05-19T20:40:12.865Z,102237.47
2023-05-19T20:42:41.342Z,102233.19
2023-05-19T20:45:09.989Z,102235.59
2023-05-19T20:47:38.678Z,102233.06
2023-05-19T20:50:07.303Z,102239.09
2023-05-19T20:52:35.943Z,102232.47
2023-05-19T20:55:04.569Z,102241.25
2023-05-19T20:57:33.049Z,102246.75
2023-05-19T21:00:01.490Z,102233.38
2023-05-19T21:02:29.923Z,102242.72
2023-05-19T21:04:58.485Z,102240.88
2023-05-19T21:07:26.923Z,102241.69
2023-05-19T21:09:56.267Z,102246.72
2023-05-19T21:12:25.230Z,102242.28
2023-05-19T21:14:53.732Z,102237.75
2023-05-19T21:17:22.195Z,102233.06
2023-05-19T21:19:52.647Z,102246.34
2023-05-19T21:22:21.156Z,102243.50
2023-05-19T21:24:49.470Z,102237.66
2023-05-19T21:27:17.902Z,102241.84
2023-05-19T21:29:46.313Z,102234.63
2023-05-19T21:32:14.744Z,102245.16
2023-05-19T21:34:43.272Z,102248.78
2023-05-19T21:37:11.706Z,102246.41
2023-05-19T21:39:40.049Z,102244.59
2023-05-19T21:42:08.413Z,102243.28
2023-05-19T21:44:36.996Z,102237.84
2023-05-19T21:47:05.489Z,102247.56
2023-05-19T21:49:33.845Z,102252.47
2023-05-19T21:52:02.212Z,102244.09
2023-05-19T21:54:30.666Z,102251.59
2023-05-19T21:56:59.152Z,102253.91
2023-05-19T21:59:27.810Z,102242.63
2023-05-19T22:01:56.213Z,102241.69
2023-05-19T22:04:24.643Z,102240.72
2023-05-19T22:06:53.050Z,102240.94
2023-05-19T22:09:21.624Z,102240.84
2023-05-19T22:11:50.325Z,102245.53
2023-05-19T22:14:18.725Z,102239.63
2023-05-19T22:16:47.682Z,102239.69
2023-05-19T22:19:16.595Z,102235.13
2023-05-19T22:21:44.998Z,102246.34
2023-05-19T22:24:13.527Z,102250.44
2023-05-19T22:26:46.260Z,102251.88
2023-05-19T22:29:18.375Z,102242.28
2023-05-19T22:31:47.398Z,102242.78
2023-05-19T22:34:15.807Z,102245.75
2023-05-19T22:36:45.947Z,102238.66
2023-05-19T22:39:14.414Z,102242.16
2023-05-19T22:41:42.827Z,102236.03
2023-05-19T22:44:15.462Z,102230.88
2023-05-19T22:46:46.615Z,102228.91
2023-05-19T22:49:15.075Z,102231.97
2023-05-19T22:51:43.580Z,102239.06
2023-05-19T22:54:11.993Z,102240.34
2023-05-19T22:56:44.369Z,102232.72
2023-05-19T22:59:13.840Z,102237.84
2023-05-19T23:01:42.343Z,102235.69
2023-05-19T23:04:11.482Z,102234.34
2023-05-19T23:06:39.958Z,102231.38
2023-05-19T23:09:08.355Z,102237.22
2023-05-19T23:11:36.805Z,102230.78
2023-05-19T23:14:05.600Z,102229.81
2023-05-19T23:16:34.004Z,102233.34
2023-05-19T23:19:02.533Z,102227.56
2023-05-19T23:21:32.416Z,102228.31
2023-05-19T23:24:00.964Z,102230.38
2023-05-19T23:26:29.293Z,102233.88
2023-05-19T23:28:57.695Z,102234.41
2023-05-19T23:31:26.139Z,102231.28
2023-05-19T23:33:54.557Z,102228.03
2023-05-19T23:36:23.290Z,102233.22
2023-05-19T23:38:51.652Z,102228.53
2023-05-19T23:41:19.970Z,102220.69
2023-05-19T23:43:48.279Z,102229.22
2023-05-19T23:46:16.758Z,102235.53
2023-05-19T23:48:45.230Z,102231.00
2023-05-19T23:51:13.751Z,102235.50
2023-05-19T23:53:42.355Z,102235.25
2023-05-19T23:56:10.823Z,102228.53
2023-05-19T23:58:39.172Z,102223.81
